Aviation Digital Data Service (ADDS)

Output produced by METARs form (0033 UTC 28 April 2015)
found at http://aviationweather.gov/adds/metars/
 
KDAG 272350Z AUTO 08007KT 10SM CLR 26/M13 A2996 RMK AO2 SLP127 T02611128 10272 20222 56023
KDAG 272320Z 2800/2824 03011G15KT P6SM SKC 
     FM280400 27008KT P6SM SKC 
     FM281500 35010KT P6SM SKC 
     FM281900 06008KT P6SM SKC
       
KEDW 272358Z 08011G17KT 90SM CLR 27/M14 A2996 RMK AO2A SLP132 T02651137 10269 20222 57017
TAF AMD KEDW 2718/2824 04015G25KT 9999 SKC 520009 QNH2992INS 
     BECMG 2722/2723 05012KT 9999 SKC QNH2992INS 
     BECMG 2802/2803 VRB06KT 9999 SKC QNH2994INS 
     BECMG 2823/2824 24012KT 9999 FEW200 QNH2991INS TX30/2821Z TN06/2813Z COR 271812
       
KVCV 280015Z AUTO 06008G14KT 10SM CLR 24/M09 A3001 RMK AO2
KONT 272353Z 26008KT 10SM CLR 30/M03 A2988 RMK AO2 SLP099 T03001028 10300 20261 56016
KONT 272320Z 2800/2906 26008KT P6SM SKC 
     FM280330 VRB05KT P6SM SKC 
     FM282000 26010KT P6SM SKC 
     FM290330 VRB04KT P6SM SKC
       
KNID 272356Z 10016G21KT 10SM CLR 28/M12 A2995 RMK AO2 PK WND 10026/2258 SLP126 T02831117 10289 20244 56019 $
TAF KNID 2723/2823 10022G28KT 9999 SKC 510005 510505 QNH2995INS 
     BECMG 0100/0300 VRB06KT SKC 500000 QNH2995INS T09/2813Z T29/2923Z LAST NO AMD AFT 2805/ NEXT 2815
       
KSNA 272353Z 28010G19KT 10SM CLR 28/M03 A2987 RMK AO2 SLP113 T02781028 10306 20250 56014
KSNA 272320Z 2800/2824 27009KT P6SM SKC 
     FM280200 VRB04KT P6SM SKC 
     FM281900 24009KT P6SM SKC
       
KSAN 272351Z 33012KT 10SM CLR 24/07 A2988 RMK AO2 SLP119 T02440072 10267 20228 56016
KSAN 272320Z 2800/2906 33008KT P6SM SKC 
     FM280300 VRB04KT P6SM SKC 
     FM281900 30010KT P6SM SKC 
     FM290200 VRB04KT P6SM SKC
       
KNXP 272356Z 35005KT 10SM CLR 26/M07 A3001 RMK AO2 SLP135 T02611072 10261 20211 56020 $
TAF KNXP 2721/2821 36018G27KT 9999 FEW200 QNH3000INS 
     TEMPO 2721/2801 36010KT 
     BECMG 2801/2803 VRB06KT 9999 SKC QNH3001INS T25/2723Z T15/2813Z
       
KPSP 272353Z VRB05KT 10SM CLR 32/M13 A2988 RMK AO2 SLP114 T03221128 10328 20283 56020
KPSP 272320Z 2800/2824 VRB06KT P6SM SKC 
     FM282000 14007KT P6SM SKC
       
KLAX 272353Z 26014KT 10SM CLR 23/06 A2990 RMK AO2 SLP124 T02330056 10244 20206 58009
KLAX 272335Z 2800/2906 27012KT P6SM SKC 
     FM280200 24008KT P6SM SKC 
     FM280600 VRB03KT P6SM SKC 
     FM281800 24007KT P6SM SKC 
     FM282100 25012KT P6SM SKC 
     FM290300 25008KT P6SM SKC
       
KCNO 272353Z 28009KT 10SM CLR 31/02 A2987 RMK AO2 SLP111 T03060022 10322 20272 56017
KSMO 272351Z 24009KT 10SM CLR 25/04 A2990 RMK AO2 SLP123 T02500039 10256 20222 56013 $
KLGB 272353Z 29018KT 10SM CLR 28/01 A2988 RMK AO2 SLP116 T02780011 10311 20244 56011
KLGB 272335Z 2800/2824 30015KT P6SM SKC 
     FM280200 30008KT P6SM SKC 
     FM280500 VRB03KT P6SM SKC 
     FM281800 16005KT P6SM SKC 
     FM282000 21007KT P6SM SKC 
     FM282200 29008KT P6SM SKC
       
KVNY 272351Z 13006KT 10SM CLR 29/00 A2988 RMK AO2 SLP109 T02890000 10311 20278 58008 $
KVNY 272335Z 2800/2824 14011KT P6SM SKC 
     FM280300 33009KT P6SM SKC 
     FM280800 VRB03KT P6SM SKC 
     FM282100 15008KT P6SM SKC
       
KBUR 272353Z 17010KT 10SM CLR 27/00 A2989 RMK AO2 SLP111 T02670000 10300 20261 56008 $
KBUR 272335Z 2800/2824 19009KT P6SM SKC 
     FM280300 14005KT P6SM SKC 
     FM280800 VRB03KT P6SM SKC 
     FM282100 18008KT P6SM SKC
       
KBFL 272354Z 33012KT 10SM CLR 31/03 A2988 RMK AO2 SLP111 T03060028 10317 20239 56023
KBFL 272320Z 2800/2824 34011KT P6SM SKC 
     FM280300 VRB04KT P6SM SKC 
     FM282000 29008KT P6SM SKC
       
KPMD 272353Z AUTO 07011G18KT 10SM CLR 26/M12 A2999 RMK AO2 WSHFT 2307 SLP142 T02561122 10267 20211 56015
KPMD 272335Z 2800/2824 08015KT P6SM SKC 
     FM280200 33008KT P6SM SKC 
     FM281000 VRB03KT P6SM SKC 
     FM282100 05008KT P6SM SKC
       
KOXR 272351Z 29014KT 10SM CLR 22/08 A2989 RMK AO2 SLP122 T02220078 10300 20217 56012
KOXR 272335Z 2800/2824 28016KT P6SM SKC 
     FM280200 28008KT P6SM SKC 
     FM280600 30004KT P6SM SKC 
     FM280800 VRB03KT P6SM SKC 
     FM281400 05010KT P6SM SKC 
     FM281800 26008KT P6SM SKC 
     FM282100 26012KT P6SM SKC
       
KWJF 272356Z 06012G18KT 10SM CLR 27/M11 A2999 RMK AO2 SLP147 T02671106 10267 20211 56014
KWJF 272335Z 2800/2824 07010KT P6SM SKC 
     FM280200 29010KT P6SM SKC 
     FM281000 VRB03KT P6SM SKC 
     FM282100 10009KT P6SM SKC
       
KCMA 272355Z 22008KT 10SM CLR 26/04 A2989 RMK AO2 SLP130 T02560044 10322 20250 56008
KFAT 272353Z 11006KT 10SM FEW080 FEW150 FEW200 27/07 A2991 RMK AO2 SLP127 FEW AC DSNT NE T02720067 10278 20217 56026
KFAT 272320Z 2800/2824 VRB03KT P6SM FEW080 FEW200
       
KEED 272356Z AUTO 36015KT 10SM CLR 31/M05 A2986 RMK AO2 PK WND 36027/2302 SLP086 T03111050 10317 20256 56024
KEED 272320Z 2800/2824 03016G22KT P6SM SKC 
     FM280300 33008KT P6SM SKC 
     FM281600 02010KT P6SM SKC 
     FM282000 19007KT P6SM SKC
       
KLSV 272358Z AUTO 04009KT 10SM CLR 27/M04 A2994 RMK AO2 SLP123 T02671043 10268 20215 57020
TAF AMD KLSV 2723/2823 03009KT 9999 FEW200 QNH2992INS 
     TEMPO 2723/2803 03012G20KT 
     BECMG 2803/2804 VRB06KT 9999 FEW200 QNH2996INS 
     BECMG 2815/2816 03009KT 9999 FEW200 QNH2998INS TX29/2823Z TN12/2813Z AMD 272310
       
KLAS 272356Z VRB03KT 10SM FEW250 27/M06 A2993 RMK AO2 SLP117 T02671061 10272 20211 56021
KLAS 272320Z 2800/2824 01007KT P6SM SKC 
     FM280300 21007KT P6SM SKC 
     FM281500 06005KT P6SM SKC
       
KHII 280015Z AUTO 29019G23KT 10SM CLR 30/M02 A2984 RMK AO2
KIFP 280015Z AUTO 34015G23KT 10SM CLR 29/M02 A2986 RMK AO2